Time;durP1;ratioP1;P1;durP2;ratioP2;P2;SDS_P1;SDS_P2;PMS_P1;PMS_P2;Temp;Humidity;BMP_temperature;BMP_pressure;BME280_temperature;BME280_humidity;BME280_pressure;Samples;Min_cycle;Max_cycle;Signal;HPM_P1;HPM_P2
2021/11/11 00:00:25;;;;;;;44.07;22.47;;;7.50;99.90;;;;;;5067741;28;20203;-62
2021/11/11 00:02:54;;;;;;;40.53;21.60;;;7.50;99.90;;;;;;5067798;28;20156;-62
2021/11/11 00:05:20;;;;;;;44.70;21.23;;;7.50;99.90;;;;;;5067830;28;20165;-62
2021/11/11 00:07:46;;;;;;;43.40;22.57;;;7.60;99.90;;;;;;5068026;28;20156;-62
2021/11/11 00:10:16;;;;;;;50.07;25.17;;;7.90;99.90;;;;;;5067517;28;20220;-62
2021/11/11 00:12:44;;;;;;;49.97;24.43;;;8.10;99.90;;;;;;5066939;28;20692;-62
2021/11/11 00:15:12;;;;;;;55.57;24.67;;;8.20;99.90;;;;;;5067636;28;20640;-63
2021/11/11 00:17:38;;;;;;;49.90;22.47;;;8.40;99.90;;;;;;5067780;28;20179;-63
2021/11/11 00:20:05;;;;;;;51.20;24.27;;;8.40;99.90;;;;;;5067526;28;20665;-62
2021/11/11 00:22:31;;;;;;;43.97;24.40;;;8.30;99.90;;;;;;5067594;28;20160;-62
2021/11/11 00:24:57;;;;;;;52.70;24.17;;;8.20;99.90;;;;;;5067202;28;20165;-62
2021/11/11 00:27:23;;;;;;;44.30;23.63;;;8.20;99.90;;;;;;5067074;28;20202;-62
2021/11/11 00:29:48;;;;;;;39.43;23.00;;;8.70;99.90;;;;;;5067653;28;20183;-62
2021/11/11 00:32:14;;;;;;;47.00;22.80;;;8.70;99.90;;;;;;5067194;28;20267;-62
2021/11/11 00:34:40;;;;;;;43.70;22.47;;;8.60;99.90;;;;;;5067137;28;20175;-62
2021/11/11 00:37:07;;;;;;;45.50;23.20;;;8.40;99.90;;;;;;5067335;28;20160;-62
2021/11/11 00:39:33;;;;;;;41.20;21.97;;;8.30;99.90;;;;;;5067050;28;20208;-62
2021/11/11 00:41:58;;;;;;;40.97;22.20;;;8.50;99.90;;;;;;5067050;28;20169;-62
2021/11/11 00:44:24;;;;;;;46.80;23.30;;;8.50;99.90;;;;;;5066782;28;20172;-62
2021/11/11 00:46:49;;;;;;;38.27;22.03;;;8.80;99.90;;;;;;5067338;28;20220;-62
2021/11/11 00:49:16;;;;;;;41.70;23.23;;;8.80;99.90;;;;;;5066965;28;20168;-62
2021/11/11 00:51:42;;;;;;;53.07;25.33;;;9.00;99.90;;;;;;5067168;28;20200;-62
2021/11/11 00:54:08;;;;;;;45.37;24.07;;;9.10;99.90;;;;;;5065230;28;20169;-62
2021/11/11 00:56:34;;;;;;;53.90;25.67;;;8.90;99.90;;;;;;5065349;28;20184;-62
2021/11/11 00:59:00;;;;;;;47.60;24.80;;;9.00;99.90;;;;;;5066755;28;20189;-62
2021/11/11 01:01:30;;;;;;;58.70;24.57;;;9.20;99.90;;;;;;5067006;28;20157;-62
2021/11/11 01:03:57;;;;;;;54.60;26.43;;;8.90;99.90;;;;;;5066490;28;20168;-62
2021/11/11 01:06:25;;;;;;;52.43;26.47;;;8.70;99.90;;;;;;5066767;28;20230;-62
2021/11/11 01:08:51;;;;;;;51.43;25.97;;;8.70;99.90;;;;;;5066599;28;20210;-62
2021/11/11 01:11:16;;;;;;;55.37;27.40;;;8.90;99.90;;;;;;5066801;28;20202;-62
2021/11/11 01:13:42;;;;;;;52.80;28.30;;;8.80;99.90;;;;;;5066112;28;20433;-62
2021/11/11 01:16:08;;;;;;;58.80;28.43;;;8.60;99.90;;;;;;5066717;28;20168;-62
2021/11/11 01:18:34;;;;;;;52.13;27.50;;;8.40;99.90;;;;;;5065025;28;20593;-62
2021/11/11 01:21:00;;;;;;;46.77;24.97;;;8.50;99.90;;;;;;5066554;28;20167;-62
2021/11/11 01:23:25;;;;;;;57.00;28.63;;;8.40;99.90;;;;;;5066233;28;20275;-62
2021/11/11 01:25:51;;;;;;;61.90;29.03;;;8.80;99.90;;;;;;5066407;28;20191;-62
2021/11/11 01:28:17;;;;;;;59.30;29.20;;;9.10;99.90;;;;;;5066098;28;20195;-62
2021/11/11 01:30:44;;;;;;;61.57;31.33;;;9.10;99.90;;;;;;5066652;28;20173;-62
2021/11/11 01:33:10;;;;;;;56.53;29.13;;;9.00;99.90;;;;;;5066122;28;20165;-63
2021/11/11 01:35:37;;;;;;;55.33;28.70;;;8.70;99.90;;;;;;5066187;28;20630;-62
2021/11/11 01:38:03;;;;;;;59.67;30.00;;;8.90;99.90;;;;;;5066235;28;20171;-62
2021/11/11 01:40:29;;;;;;;59.87;30.80;;;9.00;99.90;;;;;;5066043;28;20192;-62
2021/11/11 01:42:59;;;;;;;62.10;30.53;;;9.20;99.90;;;;;;5065749;28;20189;-62
2021/11/11 01:45:27;;;;;;;64.30;30.83;;;9.10;99.90;;;;;;5066128;28;20556;-63
2021/11/11 01:47:53;;;;;;;65.17;29.50;;;9.00;99.90;;;;;;5065939;28;20184;-62
2021/11/11 01:50:20;;;;;;;61.00;30.37;;;9.00;99.90;;;;;;5066207;28;20160;-62
2021/11/11 01:52:46;;;;;;;61.60;31.70;;;8.90;99.90;;;;;;5064884;28;20168;-62
2021/11/11 01:55:12;;;;;;;54.57;28.87;;;8.90;99.90;;;;;;5065934;28;20164;-62
2021/11/11 01:57:38;;;;;;;66.20;31.60;;;8.70;99.90;;;;;;5065993;28;20172;-62
2021/11/11 02:00:08;;;;;;;60.53;27.90;;;8.90;99.90;;;;;;5066120;28;20313;-62
2021/11/11 02:02:34;;;;;;;60.13;27.67;;;8.90;99.90;;;;;;5065993;28;20184;-62
2021/11/11 02:05:00;;;;;;;58.57;28.30;;;8.90;99.90;;;;;;5065732;28;20165;-62
2021/11/11 02:07:25;;;;;;;51.80;28.23;;;8.80;99.90;;;;;;5067341;28;20172;-62
2021/11/11 02:09:51;;;;;;;60.30;28.27;;;8.60;99.90;;;;;;5069762;28;20175;-62
2021/11/11 02:12:17;;;;;;;54.10;26.93;;;8.60;99.90;;;;;;5068425;28;20220;-62
2021/11/11 02:14:43;;;;;;;53.50;27.80;;;8.90;99.90;;;;;;5069778;28;20270;-62
2021/11/11 02:17:09;;;;;;;58.27;26.40;;;8.90;99.90;;;;;;5069977;28;20253;-62
2021/11/11 02:19:35;;;;;;;50.97;25.57;;;8.70;99.90;;;;;;5069717;28;20255;-62
2021/11/11 02:22:04;;;;;;;50.90;26.47;;;8.80;99.90;;;;;;5069791;28;20248;-62
2021/11/11 02:24:32;;;;;;;50.77;27.57;;;8.70;99.90;;;;;;5069404;28;20194;-62
2021/11/11 02:26:58;;;;;;;53.70;26.93;;;8.60;99.90;;;;;;5069165;28;20306;-62
2021/11/11 02:29:24;;;;;;;47.97;26.00;;;8.60;99.90;;;;;;5069603;28;20185;-63
2021/11/11 02:31:50;;;;;;;49.77;25.43;;;8.40;99.90;;;;;;5068342;28;20191;-62
2021/11/11 02:34:18;;;;;;;46.23;25.63;;;8.50;99.90;;;;;;5069322;28;20169;-62
2021/11/11 02:37:00;;;;;;;49.00;26.23;;;8.40;99.90;;;;;;5069383;28;20187;-62
2021/11/11 02:39:31;;;;;;;49.87;27.00;;;8.30;99.90;;;;;;5069353;28;20188;-62
2021/11/11 02:41:57;;;;;;;43.43;24.90;;;8.30;99.90;;;;;;5068950;28;20168;-62
2021/11/11 02:44:23;;;;;;;53.60;27.10;;;8.40;99.90;;;;;;5069192;28;20163;-62
2021/11/11 02:46:49;;;;;;;49.50;26.73;;;8.60;99.90;;;;;;5069406;28;20161;-62
2021/11/11 02:49:14;;;;;;;57.53;26.70;;;8.50;99.90;;;;;;5069232;28;20240;-62
2021/11/11 02:51:40;;;;;;;49.53;24.73;;;8.40;99.90;;;;;;5069272;28;20195;-62
2021/11/11 02:54:06;;;;;;;48.57;24.47;;;8.40;99.90;;;;;;5068824;28;20173;-62
2021/11/11 02:56:31;;;;;;;48.87;25.17;;;8.50;99.90;;;;;;5069178;28;20179;-62
2021/11/11 02:58:57;;;;;;;43.10;24.07;;;8.60;99.90;;;;;;5068919;28;20196;-62
2021/11/11 03:01:23;;;;;;;45.03;25.87;;;8.70;99.90;;;;;;5069264;28;20167;-62
2021/11/11 03:03:48;;;;;;;48.27;24.80;;;8.80;99.90;;;;;;5067607;28;20177;-62
2021/11/11 03:06:14;;;;;;;50.77;24.23;;;8.70;99.90;;;;;;5068965;28;20167;-62
2021/11/11 03:08:40;;;;;;;45.60;24.07;;;8.60;99.90;;;;;;5069293;28;20159;-62
2021/11/11 03:11:06;;;;;;;45.67;24.30;;;8.40;99.90;;;;;;5069143;28;20157;-62
2021/11/11 03:13:31;;;;;;;43.97;23.33;;;8.30;99.90;;;;;;5068256;28;20280;-62
2021/11/11 03:15:58;;;;;;;45.23;24.07;;;8.30;99.90;;;;;;5068716;28;20182;-62
2021/11/11 03:18:25;;;;;;;44.93;24.47;;;8.30;99.90;;;;;;5068825;28;20157;-62
2021/11/11 03:20:51;;;;;;;47.90;23.80;;;8.30;99.90;;;;;;5068601;28;20175;-62
2021/11/11 03:23:17;;;;;;;47.63;23.10;;;8.40;99.90;;;;;;5068631;28;20525;-62
2021/11/11 03:25:43;;;;;;;36.37;22.70;;;8.40;99.90;;;;;;5068511;28;20171;-62
2021/11/11 03:28:09;;;;;;;46.30;23.43;;;8.40;99.90;;;;;;5068295;28;20200;-62
2021/11/11 03:30:36;;;;;;;48.13;25.27;;;8.30;99.90;;;;;;5068705;28;20168;-62
2021/11/11 03:33:05;;;;;;;39.50;23.20;;;8.30;99.90;;;;;;5068472;28;20177;-62
2021/11/11 03:35:31;;;;;;;42.87;22.97;;;8.20;99.90;;;;;;5067092;28;20645;-62
2021/11/11 03:38:00;;;;;;;45.43;25.93;;;8.20;99.90;;;;;;5068769;28;20192;-62
2021/11/11 03:40:29;;;;;;;43.03;22.97;;;8.30;99.90;;;;;;5068289;28;20196;-62
2021/11/11 03:42:57;;;;;;;44.97;23.97;;;8.20;99.90;;;;;;5068084;28;20254;-62
2021/11/11 03:45:22;;;;;;;47.43;24.90;;;8.30;99.90;;;;;;5068116;28;20177;-62
2021/11/11 03:47:49;;;;;;;46.20;25.40;;;8.40;99.90;;;;;;5066949;28;20260;-62
2021/11/11 03:50:16;;;;;;;49.10;24.80;;;8.50;99.90;;;;;;5068089;28;20169;-62
2021/11/11 03:52:43;;;;;;;42.30;24.97;;;8.40;99.90;;;;;;5068117;28;20176;-62
2021/11/11 03:55:10;;;;;;;40.20;24.43;;;8.40;99.90;;;;;;5067860;28;20177;-62
2021/11/11 03:57:36;;;;;;;44.13;24.77;;;8.70;99.90;;;;;;5066290;28;20239;-62
2021/11/11 04:00:06;;;;;;;41.70;23.67;;;8.50;99.90;;;;;;5068199;28;20184;-63
2021/11/11 04:02:32;;;;;;;44.27;22.67;;;8.40;99.90;;;;;;5067902;28;20164;-62
2021/11/11 04:04:58;;;;;;;41.60;22.03;;;8.40;99.90;;;;;;5067686;28;20173;-62
2021/11/11 04:07:24;;;;;;;39.70;23.93;;;8.70;99.90;;;;;;5066633;28;20160;-63
2021/11/11 04:09:50;;;;;;;48.83;23.87;;;9.00;99.90;;;;;;5067699;28;20223;-62
2021/11/11 04:12:16;;;;;;;46.83;24.43;;;9.10;99.90;;;;;;5067461;28;20246;-62
2021/11/11 04:14:42;;;;;;;37.07;22.43;;;9.60;99.90;;;;;;5067491;28;20207;-62
2021/11/11 04:17:08;;;;;;;44.57;23.57;;;9.30;99.90;;;;;;5067855;28;20164;-62
2021/11/11 04:19:33;;;;;;;46.27;23.93;;;8.90;99.90;;;;;;5066028;28;20638;-62
2021/11/11 04:21:59;;;;;;;38.53;21.97;;;9.10;99.90;;;;;;5067454;28;20170;-62
2021/11/11 04:24:25;;;;;;;41.47;24.17;;;9.40;99.90;;;;;;5067228;28;20220;-62
2021/11/11 04:26:58;;;;;;;44.80;21.97;;;9.40;99.90;;;;;;5067237;28;20557;-62
2021/11/11 04:29:30;;;;;;;36.27;20.93;;;9.00;99.90;;;;;;5067037;28;20224;-62
2021/11/11 04:32:01;;;;;;;40.70;21.63;;;8.80;99.90;;;;;;5067342;28;20182;-62
2021/11/11 04:34:29;;;;;;;38.50;22.47;;;8.80;99.90;;;;;;5067278;28;20634;-62
2021/11/11 05:03:11;;;;;;;41.03;23.07;;;8.80;99.90;;;;;;5066815;28;20175;-62
2021/11/11 05:05:38;;;;;;;44.47;23.50;;;9.20;99.90;;;;;;5066589;28;20164;-63
2021/11/11 05:08:04;;;;;;;44.63;23.67;;;9.10;99.90;;;;;;5066568;28;20214;-62
2021/11/11 05:10:30;;;;;;;41.53;22.07;;;8.90;99.90;;;;;;5066557;28;20164;-62
2021/11/11 05:12:56;;;;;;;41.60;22.50;;;8.50;99.90;;;;;;5064730;28;20246;-62
2021/11/11 05:15:22;;;;;;;44.33;23.70;;;8.30;99.90;;;;;;5065114;28;20228;-62
2021/11/11 05:17:48;;;;;;;45.53;24.17;;;8.40;99.90;;;;;;5066704;28;20176;-62
2021/11/11 05:20:16;;;;;;;42.90;23.97;;;8.70;99.90;;;;;;5066252;28;20239;-62
2021/11/11 05:22:42;;;;;;;40.47;23.73;;;8.90;99.90;;;;;;5066579;28;20160;-61
2021/11/11 05:25:10;;;;;;;43.47;23.17;;;9.10;99.90;;;;;;5066086;28;20183;-62
2021/11/11 05:27:36;;;;;;;50.77;25.30;;;9.10;99.90;;;;;;5066113;28;20175;-62
2021/11/11 05:30:07;;;;;;;47.67;22.87;;;9.40;99.90;;;;;;5066503;28;20165;-62
2021/11/11 05:32:34;;;;;;;46.60;24.00;;;9.30;99.90;;;;;;5066150;28;20163;-62
2021/11/11 05:35:10;;;;;;;40.07;23.47;;;9.10;99.90;;;;;;5066015;28;20184;-62
2021/11/11 05:37:37;;;;;;;39.93;22.83;;;9.10;99.90;;;;;;5066402;28;20473;-62
2021/11/11 05:40:05;;;;;;;44.07;22.30;;;8.90;99.90;;;;;;5066122;28;20189;-62
2021/11/11 05:42:30;;;;;;;42.40;22.73;;;8.80;99.90;;;;;;5065134;28;20167;-62
2021/11/11 05:44:56;;;;;;;44.40;23.10;;;8.70;99.90;;;;;;5065912;28;20161;-62
2021/11/11 05:47:22;;;;;;;42.03;22.40;;;8.60;99.90;;;;;;5066306;28;20170;-62
2021/11/11 05:49:47;;;;;;;34.90;20.87;;;8.50;99.90;;;;;;5066101;28;20179;-62
2021/11/11 05:52:13;;;;;;;37.40;20.67;;;8.40;99.90;;;;;;5066181;28;20165;-62
2021/11/11 05:54:39;;;;;;;34.70;20.93;;;8.50;99.90;;;;;;5066128;28;20180;-62
2021/11/11 05:57:08;;;;;;;43.10;21.37;;;8.70;99.90;;;;;;5065735;28;20755;-62
2021/11/11 05:59:39;;;;;;;38.63;21.93;;;8.80;99.90;;;;;;5066021;28;20184;-62
2021/11/11 06:02:10;;;;;;;37.53;21.40;;;8.90;99.90;;;;;;5065956;28;20168;-62
2021/11/11 06:04:36;;;;;;;42.20;21.80;;;8.80;99.90;;;;;;5065725;28;20252;-62
2021/11/11 06:07:02;;;;;;;43.20;21.73;;;8.80;99.90;;;;;;5066117;28;20157;-62
2021/11/11 06:09:28;;;;;;;42.03;22.40;;;8.80;99.90;;;;;;5066081;28;20248;-62
2021/11/11 06:11:54;;;;;;;35.73;21.30;;;8.70;99.90;;;;;;5064591;28;20165;-62
2021/11/11 06:14:19;;;;;;;42.87;21.70;;;8.60;99.90;;;;;;5065465;28;20172;-62
2021/11/11 06:16:45;;;;;;;44.47;22.20;;;8.50;99.90;;;;;;5065802;28;20545;-62
2021/11/11 06:19:11;;;;;;;46.70;23.87;;;8.60;99.90;;;;;;5065682;28;20573;-62
2021/11/11 06:21:38;;;;;;;43.80;22.70;;;8.60;99.90;;;;;;5065890;28;20313;-62
2021/11/11 06:24:04;;;;;;;38.53;21.83;;;8.70;99.90;;;;;;5065583;28;20192;-62
2021/11/11 06:26:30;;;;;;;42.87;23.83;;;8.60;99.90;;;;;;5065785;28;20234;-62
2021/11/11 06:28:56;;;;;;;40.60;22.13;;;8.40;99.90;;;;;;5065341;28;20169;-62
2021/11/11 06:31:22;;;;;;;48.17;22.73;;;8.30;99.90;;;;;;5065712;28;20149;-62
2021/11/11 06:33:48;;;;;;;38.07;22.23;;;8.40;99.90;;;;;;5065356;28;20173;-62
2021/11/11 06:36:14;;;;;;;39.10;24.10;;;8.70;99.90;;;;;;5065263;28;20192;-62
2021/11/11 06:38:40;;;;;;;43.47;22.80;;;8.90;99.90;;;;;;5065416;28;20176;-62
2021/11/11 06:41:06;;;;;;;44.63;23.70;;;9.10;99.90;;;;;;5065504;28;20190;-62
2021/11/11 06:43:32;;;;;;;42.67;25.27;;;9.00;99.90;;;;;;5064729;28;20236;-62
2021/11/11 06:45:57;;;;;;;48.27;26.20;;;9.00;99.90;;;;;;5065392;28;20165;-62
2021/11/11 06:48:23;;;;;;;49.37;25.07;;;8.90;99.90;;;;;;5065532;28;20214;-62
2021/11/11 06:50:49;;;;;;;40.97;23.60;;;8.80;99.90;;;;;;5065120;28;20182;-62
2021/11/11 06:53:17;;;;;;;41.50;26.27;;;8.60;99.90;;;;;;5067597;28;20195;-62
2021/11/11 06:55:43;;;;;;;43.13;24.33;;;8.50;99.90;;;;;;5068823;28;20184;-62
2021/11/11 06:58:11;;;;;;;43.60;24.33;;;8.80;99.90;;;;;;5068743;28;20165;-62
2021/11/11 07:00:38;;;;;;;40.37;23.80;;;8.70;99.90;;;;;;5067688;28;20558;-62
2021/11/11 07:03:04;;;;;;;47.37;25.33;;;8.50;99.90;;;;;;5068610;28;20161;-62
2021/11/11 07:05:31;;;;;;;46.80;23.50;;;8.60;99.90;;;;;;5068717;28;20188;-63
2021/11/11 07:07:57;;;;;;;43.87;23.57;;;8.70;99.90;;;;;;5068873;28;20157;-62
2021/11/11 07:10:24;;;;;;;45.40;25.53;;;8.80;99.90;;;;;;5068777;28;20244;-61
2021/11/11 07:12:50;;;;;;;38.87;24.10;;;9.20;99.90;;;;;;5068145;28;20721;-62
2021/11/11 07:15:17;;;;;;;44.75;25.38;;;9.30;99.90;;;;;;5068330;28;20423;-62
2021/11/11 07:17:44;;;;;;;40.87;22.50;;;9.40;99.90;;;;;;5068907;28;20165;-62
2021/11/11 07:20:15;;;;;;;47.20;25.00;;;9.30;99.90;;;;;;5067244;28;20193;-65
2021/11/11 07:22:43;;;;;;;50.17;26.50;;;9.60;99.90;;;;;;5068753;28;20156;-65
2021/11/11 07:25:10;;;;;;;51.23;25.53;;;9.80;99.90;;;;;;5068199;28;20172;-65
2021/11/11 07:27:37;;;;;;;47.58;28.38;;;9.70;99.90;;;;;;5066234;28;20835;-63
2021/11/11 07:30:06;;;;;;;49.07;25.10;;;9.70;99.90;;;;;;5068580;28;20157;-63
2021/11/11 07:32:32;;;;;;;47.93;25.77;;;9.70;99.90;;;;;;5068095;28;20243;-63
2021/11/11 07:34:58;;;;;;;46.78;26.98;;;9.50;99.90;;;;;;5067698;28;20415;-63
2021/11/11 07:37:24;;;;;;;40.93;25.63;;;9.50;99.90;;;;;;5068352;28;20219;-63
2021/11/11 07:39:51;;;;;;;46.37;24.97;;;9.60;99.90;;;;;;5068131;28;20233;-63
2021/11/11 07:42:19;;;;;;;45.03;24.77;;;9.30;99.90;;;;;;5067491;28;20173;-63
2021/11/11 07:44:45;;;;;;;45.33;24.67;;;9.10;99.90;;;;;;5068027;28;20156;-63
2021/11/11 07:47:11;;;;;;;44.43;25.27;;;8.90;99.90;;;;;;5068305;28;20168;-63
2021/11/11 07:49:36;;;;;;;46.50;26.07;;;9.00;99.90;;;;;;5068106;28;20157;-63
2021/11/11 07:52:03;;;;;;;49.93;25.77;;;9.30;99.90;;;;;;5068059;28;20180;-63
2021/11/11 07:54:28;;;;;;;49.93;24.97;;;9.40;99.90;;;;;;5067733;28;20179;-63
2021/11/11 07:56:55;;;;;;;44.80;24.37;;;9.30;99.90;;;;;;5067658;28;20251;-63
2021/11/11 07:59:21;;;;;;;54.60;23.90;;;9.20;99.90;;;;;;5067161;28;20176;-63
2021/11/11 08:01:47;;;;;;;43.97;24.20;;;9.30;99.90;;;;;;5067468;28;20152;-63
2021/11/11 08:04:12;;;;;;;43.50;23.50;;;9.30;99.90;;;;;;5066531;28;20537;-63
2021/11/11 08:06:38;;;;;;;44.87;22.43;;;9.50;99.90;;;;;;5067544;28;20171;-63
2021/11/11 08:09:03;;;;;;;46.10;22.73;;;9.60;99.90;;;;;;5067428;28;20174;-64
2021/11/11 08:11:29;;;;;;;45.65;25.05;;;9.80;99.90;;;;;;5066533;28;20877;-63
2021/11/11 08:13:55;;;;;;;45.70;22.30;;;9.70;99.90;;;;;;5066779;28;20248;-64
2021/11/11 08:16:21;;;;;;;44.53;23.20;;;9.70;99.90;;;;;;5066927;28;20164;-66
2021/11/11 08:18:47;;;;;;;43.07;23.20;;;9.70;99.90;;;;;;5066754;28;20466;-66
2021/11/11 08:21:12;;;;;;;41.97;22.47;;;10.00;99.90;;;;;;5065610;28;20395;-66
2021/11/11 08:23:38;;;;;;;38.13;21.67;;;9.90;99.90;;;;;;5066953;28;20172;-66
2021/11/11 08:26:05;;;;;;;50.33;22.90;;;10.20;99.90;;;;;;5065685;28;20171;-67
2021/11/11 08:28:32;;;;;;;49.13;23.73;;;10.30;99.90;;;;;;5066668;28;20180;-66
2021/11/11 08:30:58;;;;;;;47.00;23.07;;;10.50;99.90;;;;;;5066995;28;20232;-64
2021/11/11 08:33:24;;;;;;;48.07;22.03;;;10.50;99.90;;;;;;5066804;28;20169;-66
2021/11/11 08:35:50;;;;;;;41.80;22.73;;;10.40;99.90;;;;;;5066710;28;20175;-66
2021/11/11 08:38:16;;;;;;;38.27;22.17;;;10.40;99.90;;;;;;5066928;28;20217;-66
2021/11/11 08:40:42;;;;;;;41.00;21.47;;;10.40;99.90;;;;;;5066968;28;20558;-66
2021/11/11 08:43:08;;;;;;;48.27;22.57;;;10.50;99.90;;;;;;5066777;28;20192;-66
2021/11/11 08:45:34;;;;;;;49.03;23.50;;;10.60;99.90;;;;;;5065511;28;20215;-66
2021/11/11 08:48:02;;;;;;;43.57;22.40;;;10.50;99.90;;;;;;5066888;28;20161;-66
2021/11/11 08:50:30;;;;;;;40.57;20.50;;;10.20;99.90;;;;;;5066476;28;20195;-66
2021/11/11 08:52:58;;;;;;;47.30;22.13;;;10.30;99.90;;;;;;5066748;28;20165;-66
2021/11/11 08:55:27;;;;;;;47.57;22.27;;;10.50;99.90;;;;;;5066452;28;20218;-65
2021/11/11 08:57:54;;;;;;;39.43;20.70;;;10.20;99.90;;;;;;5065821;28;20175;-65
2021/11/11 09:00:24;;;;;;;41.73;22.27;;;10.20;99.90;;;;;;5066573;28;20193;-65
2021/11/11 09:02:52;;;;;;;42.33;21.87;;;10.20;99.90;;;;;;5066361;28;20157;-66
2021/11/11 09:05:18;;;;;;;43.97;22.10;;;10.30;99.90;;;;;;5066370;28;20542;-65
2021/11/11 09:07:44;;;;;;;40.70;21.47;;;10.40;99.90;;;;;;5066391;28;20184;-65
2021/11/11 09:10:14;;;;;;;53.40;22.80;;;10.30;99.90;;;;;;5065678;28;20234;-66
2021/11/11 09:12:40;;;;;;;42.60;21.17;;;10.20;99.90;;;;;;5065700;28;20208;-66
2021/11/11 09:15:09;;;;;;;42.83;22.33;;;10.30;99.90;;;;;;5065758;28;20172;-65
2021/11/11 09:17:36;;;;;;;38.23;21.57;;;10.30;99.90;;;;;;5066294;28;20161;-66
2021/11/11 09:20:05;;;;;;;35.83;21.27;;;10.30;99.90;;;;;;5065740;28;20277;-66
2021/11/11 09:22:31;;;;;;;46.80;20.17;;;10.30;99.90;;;;;;5066158;28;20183;-65
2021/11/11 09:24:58;;;;;;;38.83;21.10;;;10.20;99.90;;;;;;5065749;28;20195;-66
2021/11/11 09:27:24;;;;;;;40.60;22.90;;;10.20;99.90;;;;;;5064739;28;20415;-65
2021/11/11 09:29:49;;;;;;;39.17;20.50;;;10.40;99.90;;;;;;5066235;28;20188;-65
2021/11/11 09:32:16;;;;;;;38.57;20.87;;;10.60;99.90;;;;;;5066014;28;20216;-66
2021/11/11 09:34:41;;;;;;;41.97;21.00;;;10.40;99.90;;;;;;5065892;28;20173;-66
2021/11/11 09:37:07;;;;;;;39.47;22.07;;;10.40;99.90;;;;;;5065073;28;20494;-66
2021/11/11 09:39:33;;;;;;;31.25;19.17;;;10.30;99.90;;;;;;5065575;28;20210;-65
2021/11/11 09:42:01;;;;;;;46.27;21.20;;;10.20;99.90;;;;;;5065929;28;20181;-66
2021/11/11 09:44:27;;;;;;;37.33;20.63;;;10.30;99.90;;;;;;5065214;28;20326;-66
2021/11/11 09:46:54;;;;;;;40.27;21.37;;;10.40;99.90;;;;;;5065876;28;20203;-66
2021/11/11 09:49:23;;;;;;;35.77;20.80;;;10.50;99.90;;;;;;5065587;28;20641;-66
2021/11/11 09:51:50;;;;;;;34.88;19.55;;;10.80;99.90;;;;;;5065997;28;20188;-66
2021/11/11 09:59:30;;;;;;;31.77;19.55;;;11.00;99.90;;;;;;5065139;28;20191;-67
2021/11/11 10:01:58;;;;;;;34.35;18.73;;;11.10;99.90;;;;;;5065738;28;20228;-65
2021/11/11 10:04:25;;;;;;;36.25;20.17;;;11.10;99.90;;;;;;5065477;28;20165;-66
2021/11/11 10:06:51;;;;;;;38.78;19.50;;;11.00;99.90;;;;;;5065731;28;20167;-66
2021/11/11 10:09:20;;;;;;;44.38;19.10;;;11.10;99.90;;;;;;5065796;28;20164;-66
2021/11/11 10:11:51;;;;;;;28.88;17.70;;;10.80;99.90;;;;;;5065986;28;20157;-66
2021/11/11 10:14:29;;;;;;;32.13;18.60;;;10.90;99.90;;;;;;5064788;28;20212;-66
2021/11/11 10:17:01;;;;;;;33.35;18.33;;;11.30;99.90;;;;;;5065532;28;20167;-66
2021/11/11 10:19:29;;;;;;;28.70;18.27;;;11.60;99.90;;;;;;5065543;28;20271;-65
2021/11/11 10:22:06;;;;;;;32.65;17.33;;;11.80;99.90;;;;;;5065687;28;20175;-66
2021/11/11 10:24:44;;;;;;;30.33;18.00;;;12.00;99.90;;;;;;5065309;28;20161;-65
2021/11/11 10:27:13;;;;;;;34.85;18.25;;;11.80;99.90;;;;;;5066061;28;20161;-65
2021/11/11 10:30:05;;;;;;;32.53;18.27;;;11.70;99.90;;;;;;5069494;28;20176;-65
2021/11/11 10:32:40;;;;;;;29.92;17.15;;;11.50;99.90;;;;;;5068690;28;20161;-65
2021/11/11 10:35:05;;;;;;;30.35;18.25;;;11.30;99.90;;;;;;5069111;28;20190;-65
2021/11/11 10:37:34;;;;;;;31.23;17.77;;;11.40;99.90;;;;;;5069429;28;20165;-66
2021/11/11 10:40:05;;;;;;;36.20;17.95;;;11.70;99.90;;;;;;5068721;28;20196;-65
2021/11/11 10:42:33;;;;;;;32.00;17.02;;;11.90;99.90;;;;;;5068785;28;20165;-64
2021/11/11 10:45:03;;;;;;;26.67;15.98;;;12.00;99.90;;;;;;5069063;28;20169;-65
2021/11/11 10:47:32;;;;;;;29.80;16.85;;;11.80;99.90;;;;;;5069199;28;20157;-65
2021/11/11 10:50:09;;;;;;;27.88;16.90;;;12.00;99.90;;;;;;5067732;28;20176;-65
2021/11/11 10:52:46;;;;;;;30.80;16.27;;;11.90;99.90;;;;;;5068799;28;20176;-65
2021/11/11 10:55:33;;;;;;;27.92;16.00;;;11.70;99.90;;;;;;5068958;28;20251;-65
2021/11/11 10:58:15;;;;;;;27.90;17.25;;;11.80;99.90;;;;;;5068149;28;20488;-65
2021/11/11 11:00:49;;;;;;;30.42;15.85;;;12.00;99.90;;;;;;5068919;28;20247;-65
2021/11/11 11:03:30;;;;;;;30.08;16.17;;;11.80;99.90;;;;;;5068657;28;20165;-65
2021/11/11 11:06:05;;;;;;;27.95;16.30;;;11.90;99.90;;;;;;5068006;28;20553;-65
2021/11/11 11:08:51;;;;;;;23.70;15.73;;;11.90;99.90;;;;;;5068727;28;20168;-65
2021/11/11 11:11:19;;;;;;;27.83;15.48;;;11.80;99.90;;;;;;5068352;28;20183;-66
2021/11/11 11:13:53;;;;;;;27.77;15.98;;;11.90;99.90;;;;;;5068173;28;20208;-65
2021/11/11 11:16:27;;;;;;;32.33;14.82;;;12.40;99.90;;;;;;5068532;28;20177;-65
2021/11/11 11:19:02;;;;;;;33.67;16.05;;;12.50;99.90;;;;;;5068443;28;20210;-65
2021/11/11 11:21:49;;;;;;;29.98;17.38;;;12.40;99.90;;;;;;5067814;28;20404;-65
2021/11/11 11:24:17;;;;;;;32.55;16.08;;;12.30;99.90;;;;;;5068265;28;20191;-65
2021/11/11 11:26:51;;;;;;;23.08;15.13;;;12.10;99.90;;;;;;5068377;28;20220;-65
2021/11/11 11:32:05;;;;;;;27.17;15.25;;;12.20;99.90;;;;;;5068196;28;20188;-65
2021/11/11 11:34:40;;;;;;;26.40;15.25;;;12.60;99.90;;;;;;5067880;28;20204;-65
2021/11/11 11:37:12;;;;;;;27.77;15.32;;;12.60;99.90;;;;;;5068359;28;20163;-65
2021/11/11 11:39:44;;;;;;;25.70;15.15;;;12.50;99.90;;;;;;5066826;28;20230;-65
2021/11/11 11:42:11;;;;;;;35.72;16.02;;;12.80;99.90;;;;;;5068324;28;20171;-65
2021/11/11 11:44:43;;;;;;;26.73;14.82;;;12.80;99.90;;;;;;5067957;28;20165;-65
2021/11/11 11:50:14;;;;;;;27.65;14.70;;;12.90;99.90;;;;;;5068314;28;20179;-65
2021/11/11 11:52:46;;;;;;;29.58;15.43;;;12.90;99.90;;;;;;5068243;28;20149;-65
2021/11/11 11:58:01;;;;;;;30.00;15.40;;;13.00;99.90;;;;;;5067680;28;20177;-64
2021/11/11 12:03:23;;;;;;;27.83;16.58;;;13.10;99.90;;;;;;5067783;28;20168;-65
2021/11/11 12:11:50;;;;;;;25.55;14.38;;;12.90;99.90;;;;;;5067517;28;20178;-65
2021/11/11 12:29:28;;;;;;;18.95;12.30;;;13.60;99.90;;;;;;5066459;28;20687;-65
2021/11/11 12:40:03;;;;;;;28.02;14.38;;;13.10;99.90;;;;;;5067047;28;20195;-65
2021/11/11 12:42:52;;;;;;;26.85;13.50;;;13.20;99.90;;;;;;5066108;28;20191;-65
2021/11/11 12:45:30;;;;;;;23.08;13.82;;;13.50;99.90;;;;;;5066153;28;20169;-64
2021/11/11 12:48:08;;;;;;;18.30;12.20;;;13.70;99.90;;;;;;5066954;28;20161;-65
2021/11/11 12:50:42;;;;;;;23.17;13.32;;;14.00;99.90;;;;;;5066285;28;20172;-65
2021/11/11 12:53:13;;;;;;;20.67;13.02;;;14.20;99.90;;;;;;5066956;28;20153;-66
2021/11/11 12:55:47;;;;;;;21.48;12.23;;;14.40;99.90;;;;;;5066408;28;20195;-65
2021/11/11 12:58:19;;;;;;;23.42;12.65;;;14.20;99.90;;;;;;5064711;28;20244;-65
2021/11/11 13:00:50;;;;;;;17.67;12.02;;;14.10;99.90;;;;;;5066637;28;20173;-65
2021/11/11 13:03:18;;;;;;;18.88;12.25;;;14.00;99.90;;;;;;5066365;28;20157;-66
2021/11/11 13:05:56;;;;;;;18.83;11.68;;;14.10;99.90;;;;;;5065771;28;20165;-66
2021/11/11 13:08:56;;;;;;;21.52;12.32;;;14.00;99.90;;;;;;5065635;28;20161;-65
2021/11/11 13:11:30;;;;;;;20.75;12.02;;;13.70;99.90;;;;;;5066595;28;20240;-65
2021/11/11 13:14:19;;;;;;;21.27;12.35;;;13.90;99.90;;;;;;5065604;28;20216;-65
2021/11/11 13:17:10;;;;;;;16.15;11.52;;;14.30;99.90;;;;;;5066564;28;20165;-65
2021/11/11 13:19:40;;;;;;;19.65;11.57;;;14.60;99.90;;;;;;5066488;28;20267;-65
2021/11/11 13:22:48;;;;;;;17.38;12.10;;;14.20;99.90;;;;;;5066630;28;20161;-65
2021/11/11 16:01:08;;;;;;;25.33;14.95;;;13.50;99.90;;;;;;5067744;28;20218;-66
2021/11/11 16:20:05;;;;;;;30.35;16.23;;;13.30;99.90;;;;;;5067716;28;20195;-66
2021/11/11 16:27:39;;;;;;;385.92;111.78;;;13.10;99.90;;;;;;5067302;28;20232;-65
2021/11/11 16:30:18;;;;;;;341.73;129.52;;;13.10;99.90;;;;;;5067471;28;20176;-66
2021/11/11 16:32:45;;;;;;;89.80;42.92;;;13.20;99.90;;;;;;5067446;28;20165;-66
2021/11/11 16:35:14;;;;;;;32.42;18.38;;;13.20;99.90;;;;;;5067187;28;20267;-66
2021/11/11 16:37:41;;;;;;;29.48;16.67;;;13.20;99.90;;;;;;5065928;28;20165;-65
2021/11/11 16:40:10;;;;;;;30.35;17.25;;;13.20;99.90;;;;;;5067184;28;20187;-65
2021/11/11 16:42:36;;;;;;;25.55;16.58;;;13.30;99.90;;;;;;5067126;28;20161;-65
2021/11/11 16:45:03;;;;;;;34.47;18.35;;;13.20;99.90;;;;;;5066849;28;20215;-65
2021/11/11 16:47:29;;;;;;;33.40;18.73;;;13.20;99.90;;;;;;5067142;28;20165;-65